Time;durP1;ratioP1;P1;durP2;ratioP2;P2;SDS_P1;SDS_P2;PMS_P1;PMS_P2;Temp;Humidity;BMP_temperature;BMP_pressure;BME280_temperature;BME280_humidity;BME280_pressure;Samples;Min_cycle;Max_cycle;Signal;HPM_P1;HPM_P2
2023/06/01 00:00:23;;;;;;;24.15;13.85;;;;;;;12.88;92.53;102189.97;5093009;28;20060;-51
2023/06/01 00:02:49;;;;;;;24.20;14.68;;;;;;;12.86;92.09;102184.66;5091596;28;20036;-52
2023/06/01 00:05:15;;;;;;;26.40;15.05;;;;;;;12.71;93.01;102187.56;5090678;28;20035;-48
2023/06/01 00:07:40;;;;;;;25.15;14.00;;;;;;;12.73;92.69;102190.88;5092727;28;20028;-51
2023/06/01 00:10:05;;;;;;;24.65;14.13;;;;;;;12.74;92.41;102192.56;5092762;28;20094;-51
2023/06/01 00:12:31;;;;;;;24.52;13.88;;;;;;;12.78;91.99;102188.06;5092945;28;20020;-51
2023/06/01 00:14:57;;;;;;;23.67;14.10;;;;;;;12.70;92.69;102186.75;5092676;28;20047;-50
2023/06/01 00:17:23;;;;;;;23.75;14.48;;;;;;;12.64;92.57;102193.44;5092344;28;20452;-50
2023/06/01 00:19:48;;;;;;;23.98;14.23;;;;;;;12.47;93.57;102193.78;5092587;28;20027;-52
2023/06/01 00:22:15;;;;;;;25.23;15.20;;;;;;;12.42;93.71;102189.09;5092364;28;20073;-51
2023/06/01 00:24:40;;;;;;;23.67;14.73;;;;;;;12.34;94.25;102178.59;5092645;28;20024;-55
2023/06/01 00:27:07;;;;;;;25.20;14.05;;;;;;;12.23;94.92;102188.94;5092522;28;20047;-53
2023/06/01 00:29:32;;;;;;;26.48;15.18;;;;;;;12.19;94.91;102193.38;5092444;28;20028;-51
2023/06/01 00:31:57;;;;;;;25.67;15.52;;;;;;;12.13;95.25;102183.44;5092309;28;20499;-52
2023/06/01 00:34:23;;;;;;;27.75;15.13;;;;;;;11.99;96.01;102181.28;5092445;28;20132;-51
2023/06/01 00:36:48;;;;;;;26.27;15.07;;;;;;;11.95;96.12;102187.66;5092259;28;20024;-50
2023/06/01 00:39:13;;;;;;;25.20;14.80;;;;;;;11.88;96.42;102187.94;5092524;28;20099;-51
2023/06/01 00:41:39;;;;;;;25.30;14.77;;;;;;;11.86;96.84;102179.06;5092467;28;20024;-52
2023/06/01 00:44:04;;;;;;;25.35;14.85;;;;;;;11.95;96.04;102182.09;5092523;28;20054;-52
2023/06/01 00:46:30;;;;;;;24.88;15.32;;;;;;;11.89;96.62;102184.06;5092175;28;20020;-52
2023/06/01 00:48:57;;;;;;;24.48;15.05;;;;;;;11.79;97.70;102189.63;5092154;28;20073;-53
2023/06/01 00:51:23;;;;;;;26.38;15.07;;;;;;;11.78;96.84;102187.97;5092030;28;20039;-52
2023/06/01 00:53:49;;;;;;;25.77;15.32;;;;;;;11.67;98.33;102189.91;5092119;28;20107;-52
2023/06/01 00:56:15;;;;;;;25.33;16.05;;;;;;;11.53;98.95;102184.97;5092095;28;20023;-50
2023/06/01 00:58:41;;;;;;;26.65;15.85;;;;;;;11.41;100.00;102186.38;5092016;28;20377;-48
2023/06/01 01:01:07;;;;;;;27.85;16.17;;;;;;;11.36;100.00;102188.03;5092077;28;20047;-47
2023/06/01 01:03:34;;;;;;;27.63;16.10;;;;;;;11.34;100.00;102181.13;5092165;28;20020;-48
2023/06/01 01:06:22;;;;;;;28.58;15.52;;;;;;;11.39;100.00;102194.94;5091847;28;20089;-50
2023/06/01 01:08:58;;;;;;;27.88;15.73;;;;;;;11.24;100.00;102196.63;5092720;28;20077;-48
2023/06/01 01:11:28;;;;;;;26.20;15.18;;;;;;;11.27;100.00;102195.25;5109278;28;20127;-49
2023/06/01 01:14:25;;;;;;;28.27;17.25;;;;;;;11.24;100.00;102201.38;5112015;28;20479;-52
2023/06/01 01:17:15;;;;;;;28.70;15.55;;;;;;;11.26;100.00;102201.88;5112541;28;20188;-48
2023/06/01 01:19:56;;;;;;;28.25;16.70;;;;;;;11.23;100.00;102206.06;5112080;28;20075;-47
2023/06/01 01:22:56;;;;;;;25.35;15.75;;;;;;;11.13;100.00;102208.81;5112269;28;20596;-49
2023/06/01 01:25:40;;;;;;;28.48;16.83;;;;;;;11.10;100.00;102203.81;5112147;28;20024;-49
2023/06/01 01:28:05;;;;;;;;;;;;;;;11.10;98.45;102206.59;5111159;28;20036;-48
2023/06/01 01:30:32;;;;;;;28.27;16.40;;;;;;;11.06;99.42;102206.31;5111781;28;20002;-49
2023/06/01 01:32:58;;;;;;;27.67;16.45;;;;;;;10.98;100.00;102209.63;5111834;28;20433;-51
2023/06/01 01:35:26;;;;;;;27.00;16.60;;;;;;;10.91;100.00;102201.59;5111968;28;20050;-47
2023/06/01 01:37:52;;;;;;;29.42;17.85;;;;;;;10.80;100.00;102208.25;5111832;28;20467;-48
2023/06/01 01:40:18;;;;;;;29.88;18.27;;;;;;;10.69;100.00;102204.59;5111636;28;20030;-48
2023/06/01 01:42:43;;;;;;;30.48;17.95;;;;;;;10.66;100.00;102207.09;5111800;28;20027;-51
2023/06/01 01:45:09;;;;;;;29.90;18.20;;;;;;;10.63;100.00;102208.47;5114963;28;20080;-50
2023/06/01 01:47:43;;;;;;;28.83;18.08;;;;;;;10.56;100.00;102202.38;5115938;28;20355;-49
2023/06/01 01:50:11;;;;;;;27.25;17.35;;;;;;;10.53;100.00;102211.22;5115654;28;20042;-48
2023/06/01 01:52:38;;;;;;;29.20;18.30;;;;;;;10.57;100.00;102206.81;5115551;28;20044;-49
2023/06/01 01:55:07;;;;;;;29.63;17.85;;;;;;;10.57;100.00;102212.34;5115454;28;20032;-49
2023/06/01 01:57:34;;;;;;;29.67;18.02;;;;;;;10.45;100.00;102209.81;5115373;28;20101;-49
2023/06/01 02:00:00;;;;;;;32.50;18.17;;;;;;;10.37;100.00;102213.06;5115460;28;20038;-50
2023/06/01 02:02:26;;;;;;;29.77;17.50;;;;;;;10.40;100.00;102212.56;5115598;28;20138;-48
2023/06/01 02:04:51;;;;;;;29.60;18.85;;;;;;;10.37;100.00;102213.06;5115364;28;20057;-48
2023/06/01 02:07:16;;;;;;;30.80;19.00;;;;;;;10.21;100.00;102206.63;5115480;28;20081;-51
2023/06/01 02:09:42;;;;;;;29.75;18.42;;;;;;;10.14;100.00;102221.56;5115086;28;20023;-47
2023/06/01 02:12:07;;;;;;;29.20;17.73;;;;;;;10.20;100.00;102211.34;5111959;28;20379;-48
2023/06/01 02:14:33;;;;;;;28.75;17.55;;;;;;;10.28;100.00;102208.06;5114804;27;20121;-51
2023/06/01 02:17:00;;;;;;;26.92;17.13;;;;;;;10.26;100.00;102214.97;5115170;28;20039;-48
2023/06/01 02:19:26;;;;;;;28.63;17.67;;;;;;;10.37;100.00;102205.66;5115154;27;20139;-47
2023/06/01 02:21:51;;;;;;;28.35;17.08;;;;;;;10.35;100.00;102206.97;5115264;28;20422;-47
2023/06/01 02:24:17;;;;;;;27.05;17.13;;;;;;;10.43;100.00;102203.72;5115055;28;20032;-48
2023/06/01 02:26:43;;;;;;;27.77;16.88;;;;;;;10.18;100.00;102210.78;5115258;28;20451;-48
2023/06/01 02:29:08;;;;;;;28.02;16.88;;;;;;;10.05;100.00;102206.59;5107294;28;20386;-50
2023/06/01 02:31:36;;;;;;;26.63;16.23;;;;;;;10.04;100.00;102207.69;5094411;28;20039;-47
2023/06/01 02:34:02;;;;;;;26.25;15.48;;;;;;;10.11;100.00;102193.63;5094673;28;20077;-51
2023/06/01 02:36:28;;;;;;;26.63;15.23;;;;;;;10.09;100.00;102195.81;5094730;28;20032;-48
2023/06/01 02:38:57;;;;;;;26.40;15.02;;;;;;;10.06;100.00;102204.66;5094543;28;20349;-49
2023/06/01 02:41:22;;;;;;;26.33;14.93;;;;;;;9.99;100.00;102194.66;5094612;28;20024;-48
2023/06/01 02:43:50;;;;;;;30.50;18.15;;;;;;;10.08;100.00;102199.69;5094376;28;20027;-50
2023/06/01 02:46:16;;;;;;;27.08;15.45;;;;;;;10.14;100.00;102199.44;5094566;28;20031;-49
2023/06/01 02:48:41;;;;;;;26.88;15.05;;;;;;;10.08;100.00;102195.00;5094414;28;20032;-50
2023/06/01 02:51:06;;;;;;;24.92;14.75;;;;;;;10.06;100.00;102199.94;5094370;28;20024;-47
2023/06/01 02:53:31;;;;;;;25.65;15.20;;;;;;;10.04;100.00;102193.03;5094275;28;20107;-47
2023/06/01 02:55:57;;;;;;;25.17;14.98;;;;;;;9.98;100.00;102206.00;5092982;28;20137;-49
2023/06/01 02:58:22;;;;;;;27.33;14.68;;;;;;;10.09;100.00;102204.97;5093915;28;20533;-47
2023/06/01 03:00:47;;;;;;;26.52;14.77;;;;;;;10.11;100.00;102202.72;5094049;28;20024;-47
2023/06/01 03:03:13;;;;;;;24.42;13.82;;;;;;;10.15;100.00;102209.41;5094020;28;20032;-47
2023/06/01 03:05:38;;;;;;;24.63;14.40;;;;;;;10.03;100.00;102206.00;5094019;28;20039;-47
2023/06/01 03:08:05;;;;;;;25.10;14.13;;;;;;;9.99;100.00;102205.72;5093919;28;20028;-47
2023/06/01 03:10:31;;;;;;;24.52;14.00;;;;;;;9.97;100.00;102204.34;5093627;28;20054;-49
2023/06/01 03:12:56;;;;;;;24.50;13.75;;;;;;;9.95;100.00;102201.00;5091070;28;20028;-51
2023/06/01 03:15:21;;;;;;;28.27;16.63;;;;;;;10.06;100.00;102211.00;5093962;28;20131;-49
2023/06/01 03:17:47;;;;;;;24.60;14.80;;;;;;;10.14;100.00;102212.44;5093617;28;20352;-51
2023/06/01 03:20:15;;;;;;;24.17;13.63;;;;;;;10.21;100.00;102209.41;5093682;28;20098;-52
2023/06/01 03:22:45;;;;;;;26.48;13.48;;;;;;;10.19;100.00;102203.34;5093544;28;20555;-49
2023/06/01 03:25:12;;;;;;;24.17;13.60;;;;;;;10.20;100.00;102207.75;5093606;28;20031;-52
2023/06/01 03:27:41;;;;;;;25.80;13.93;;;;;;;10.17;100.00;102205.53;5093342;28;20043;-50
2023/06/01 03:30:10;;;;;;;22.88;13.50;;;;;;;10.22;100.00;102208.31;5105780;28;20111;-50
2023/06/01 03:32:40;;;;;;;22.30;13.13;;;;;;;10.16;100.00;102201.91;5113818;28;20145;-49
2023/06/01 03:35:07;;;;;;;24.35;13.35;;;;;;;10.13;100.00;102210.78;5113376;28;20494;-49
2023/06/01 03:37:37;;;;;;;25.08;13.82;;;;;;;10.12;100.00;102207.16;5113824;28;20024;-52
2023/06/01 03:40:10;;;;;;;24.20;13.48;;;;;;;10.11;100.00;102207.44;5113586;28;20050;-52
2023/06/01 03:42:40;;;;;;;24.27;13.87;;;;;;;10.03;100.00;102203.25;5113931;28;20038;-49
2023/06/01 03:45:06;;;;;;;22.90;13.00;;;;;;;10.04;100.00;102198.56;5113373;28;20288;-48
2023/06/01 03:47:31;;;;;;;25.25;13.50;;;;;;;10.03;100.00;102199.66;5113674;28;20187;-52
2023/06/01 03:49:58;;;;;;;24.30;14.10;;;;;;;9.99;100.00;102204.91;5113363;28;20073;-51
2023/06/01 03:52:24;;;;;;;25.10;14.13;;;;;;;9.97;100.00;102207.09;5113598;27;20095;-49
2023/06/01 03:54:50;;;;;;;23.08;13.50;;;;;;;9.98;100.00;102203.22;5111885;28;20122;-48
2023/06/01 03:57:15;;;;;;;24.98;13.50;;;;;;;10.02;100.00;102218.16;5113328;28;20106;-48
2023/06/01 03:59:41;;;;;;;23.88;14.32;;;;;;;10.02;100.00;102220.13;5113169;28;20030;-52
2023/06/01 04:02:08;;;;;;;24.38;13.63;;;;;;;10.03;100.00;102216.25;5113310;28;20123;-51
2023/06/01 04:04:33;;;;;;;23.95;13.70;;;;;;;10.07;100.00;102214.59;5113039;28;20031;-51
2023/06/01 04:07:00;;;;;;;25.42;13.93;;;;;;;10.08;100.00;102214.34;5112906;28;20020;-50
2023/06/01 04:09:26;;;;;;;24.75;14.27;;;;;;;10.06;99.82;102215.72;5112949;28;20027;-52
2023/06/01 04:11:51;;;;;;;24.17;15.05;;;;;;;10.04;99.57;102217.91;5109568;28;20126;-48
2023/06/01 04:14:17;;;;;;;23.88;14.63;;;;;;;10.02;99.08;102215.41;5112990;28;20038;-47
2023/06/01 04:16:42;;;;;;;25.48;15.40;;;;;;;10.05;98.87;102211.28;5113130;28;20032;-51
2023/06/01 04:19:07;;;;;;;24.95;15.30;;;;;;;10.03;99.17;102216.25;5112654;28;20082;-49
2023/06/01 04:21:32;;;;;;;23.83;14.95;;;;;;;9.95;99.18;102210.13;5113013;28;20036;-48
2023/06/01 04:23:58;;;;;;;25.27;15.30;;;;;;;9.94;98.84;102211.25;5112706;28;20046;-52
2023/06/01 04:26:25;;;;;;;25.02;15.63;;;;;;;9.95;99.54;102214.81;5092679;28;20104;-50
2023/06/01 04:28:50;;;;;;;24.50;15.27;;;;;;;9.98;98.94;102217.06;5092783;28;20036;-48
2023/06/01 04:31:19;;;;;;;24.67;14.20;;;;;;;10.02;98.79;102220.13;5092473;28;20024;-51
2023/06/01 04:33:44;;;;;;;28.17;14.32;;;;;;;9.99;98.58;102219.53;5092320;28;20039;-48
2023/06/01 04:36:13;;;;;;;24.85;14.40;;;;;;;10.06;98.82;102218.50;5092381;28;20020;-50
2023/06/01 04:38:41;;;;;;;25.35;14.32;;;;;;;10.10;98.73;102217.69;5092068;28;20115;-51
2023/06/01 04:41:09;;;;;;;23.50;14.35;;;;;;;10.17;98.06;102222.94;5092275;28;20049;-48
2023/06/01 04:43:36;;;;;;;26.05;14.82;;;;;;;10.15;97.91;102228.75;5092508;28;20160;-49
2023/06/01 04:46:04;;;;;;;26.48;15.38;;;;;;;10.17;97.73;102234.00;5092327;28;20024;-48
2023/06/01 04:48:31;;;;;;;26.58;14.75;;;;;;;10.16;97.77;102224.03;5092022;28;20036;-48
2023/06/01 04:51:00;;;;;;;24.23;15.05;;;;;;;10.26;97.57;102224.09;5092081;28;20028;-49
2023/06/01 04:53:26;;;;;;;28.02;14.52;;;;;;;10.37;96.87;102225.00;5090919;28;20028;-48
2023/06/01 04:55:51;;;;;;;26.33;14.90;;;;;;;10.41;96.30;102234.41;5092215;28;20085;-48
2023/06/01 04:58:17;;;;;;;24.85;14.18;;;;;;;10.49;95.82;102235.84;5091952;28;20055;-49
2023/06/01 05:00:42;;;;;;;25.30;14.90;;;;;;;10.44;95.56;102230.28;5091764;28;20051;-47
2023/06/01 05:03:07;;;;;;;25.58;14.73;;;;;;;10.45;94.91;102226.41;5092022;28;20111;-49
2023/06/01 05:05:33;;;;;;;24.40;14.07;;;;;;;10.53;95.33;102225.88;5091893;28;20036;-51
2023/06/01 05:07:58;;;;;;;25.70;14.63;;;;;;;10.64;95.51;102212.06;5091958;28;20039;-48
2023/06/01 05:10:23;;;;;;;27.20;13.85;;;;;;;10.73;94.54;102210.44;5091853;28;20032;-48
2023/06/01 05:12:49;;;;;;;24.67;13.93;;;;;;;10.77;94.38;102211.56;5089053;28;20551;-48
2023/06/01 05:15:16;;;;;;;23.67;14.15;;;;;;;10.74;94.64;102212.94;5091932;28;20024;-49
2023/06/01 05:17:41;;;;;;;24.85;13.80;;;;;;;10.82;93.82;102219.84;5091628;28;20086;-49
2023/06/01 05:20:08;;;;;;;26.40;14.23;;;;;;;10.85;93.66;102215.72;5095398;28;20052;-49
2023/06/01 05:22:34;;;;;;;24.75;13.98;;;;;;;10.85;93.13;102216.53;5096206;28;20028;-49
2023/06/01 05:25:00;;;;;;;23.83;13.95;;;;;;;10.83;93.80;102213.22;5096092;28;20237;-48
2023/06/01 05:27:26;;;;;;;26.65;15.00;;;;;;;10.87;94.29;102208.81;5095974;28;20032;-49
2023/06/01 05:29:51;;;;;;;24.75;14.35;;;;;;;10.98;94.36;102208.81;5095932;28;20027;-51
2023/06/01 05:32:16;;;;;;;24.73;14.07;;;;;;;11.06;94.34;102208.28;5096103;28;20028;-53
2023/06/01 05:34:42;;;;;;;26.50;14.23;;;;;;;11.17;93.16;102207.16;5094547;28;20042;-50
2023/06/01 05:37:07;;;;;;;23.52;13.50;;;;;;;11.23;92.35;102211.59;5095651;28;20460;-50
2023/06/01 05:39:32;;;;;;;26.50;13.82;;;;;;;11.21;92.00;102216.56;5095688;28;20039;-48
2023/06/01 05:41:58;;;;;;;27.45;14.57;;;;;;;11.18;91.89;102211.59;5095736;28;20125;-50
2023/06/01 05:44:24;;;;;;;24.92;14.30;;;;;;;11.21;91.87;102216.56;5095680;28;20047;-50
2023/06/01 05:46:51;;;;;;;24.35;13.68;;;;;;;11.19;91.97;102217.97;5095714;28;20376;-47
2023/06/01 05:49:16;;;;;;;23.98;13.77;;;;;;;11.27;91.98;102214.63;5095561;28;20104;-50
2023/06/01 05:51:42;;;;;;;25.45;14.00;;;;;;;11.29;91.14;102220.75;5095734;28;20115;-50
2023/06/01 05:54:08;;;;;;;23.08;14.10;;;;;;;11.27;90.66;102222.94;5095693;28;20020;-51
2023/06/01 05:56:34;;;;;;;24.25;14.05;;;;;;;11.29;90.80;102223.50;5095408;28;20032;-49
2023/06/01 05:58:59;;;;;;;24.67;14.20;;;;;;;11.19;91.24;102218.78;5095358;28;20460;-49
2023/06/01 06:01:27;;;;;;;25.63;14.30;;;;;;;11.14;90.88;102226.28;5094061;28;20115;-48
2023/06/01 06:03:52;;;;;;;26.85;14.77;;;;;;;11.03;90.86;102220.75;5095008;28;20486;-52
2023/06/01 06:06:17;;;;;;;24.20;13.68;;;;;;;11.00;91.45;102224.03;5095205;28;20116;-51
2023/06/01 06:08:43;;;;;;;23.15;13.13;;;;;;;11.06;91.14;102231.25;5095461;28;20020;-50
2023/06/01 06:11:08;;;;;;;28.55;15.13;;;;;;;11.04;90.62;102224.31;5103380;28;20023;-51
2023/06/01 06:13:34;;;;;;;26.38;14.38;;;;;;;11.13;91.20;102230.97;5114305;28;20027;-49
2023/06/01 06:15:59;;;;;;;24.95;14.40;;;;;;;11.04;91.02;102230.72;5115168;28;20030;-49
2023/06/01 06:18:25;;;;;;;24.48;14.00;;;;;;;11.17;90.26;102234.03;5115326;28;20048;-49
2023/06/01 06:20:50;;;;;;;23.98;13.80;;;;;;;11.31;90.40;102231.53;5115387;28;20035;-50
2023/06/01 06:23:15;;;;;;;25.25;14.10;;;;;;;11.53;89.75;102228.47;5115507;28;20055;-49
2023/06/01 06:25:41;;;;;;;25.77;14.93;;;;;;;11.57;88.46;102228.75;5093774;28;20028;-48
2023/06/01 06:28:07;;;;;;;24.55;13.77;;;;;;;11.64;88.22;102230.13;5086340;28;20021;-49
2023/06/01 06:30:32;;;;;;;24.85;13.55;;;;;;;11.75;87.84;102228.19;5083112;28;20043;-50
2023/06/01 06:32:58;;;;;;;24.50;14.45;;;;;;;11.83;86.88;102230.38;5083327;28;20021;-49
2023/06/01 06:35:23;;;;;;;24.42;13.85;;;;;;;12.07;86.69;102213.13;5084350;28;20028;-49
2023/06/01 06:37:48;;;;;;;25.67;14.52;;;;;;;12.27;85.30;102217.78;5085294;28;20580;-50
2023/06/01 06:40:14;;;;;;;24.90;14.10;;;;;;;12.47;84.41;102239.06;5094283;28;20121;-50
2023/06/01 06:42:40;;;;;;;23.33;14.00;;;;;;;12.45;83.34;102227.41;5094562;28;20016;-51
2023/06/01 06:45:06;;;;;;;24.05;13.65;;;;;;;12.68;83.95;102224.22;5094643;28;20028;-48
2023/06/01 06:47:31;;;;;;;24.30;13.35;;;;;;;12.82;82.14;102232.75;5094531;28;20339;-49
2023/06/01 06:49:57;;;;;;;21.92;13.25;;;;;;;12.77;82.18;102234.47;5094349;28;20030;-50
2023/06/01 06:52:22;;;;;;;24.98;13.10;;;;;;;12.77;82.44;102231.69;5094519;28;20379;-48
2023/06/01 06:54:47;;;;;;;23.35;13.20;;;;;;;12.86;81.92;102228.28;5094363;28;20111;-51
2023/06/01 06:57:13;;;;;;;23.30;13.20;;;;;;;12.91;81.34;102228.25;5094243;28;20020;-51
2023/06/01 06:59:38;;;;;;;24.48;13.20;;;;;;;12.73;80.86;102236.13;5094234;28;20054;-51
2023/06/01 07:02:04;;;;;;;21.98;13.57;;;;;;;12.76;80.93;102234.72;5109618;28;20023;-50
2023/06/01 07:04:30;;;;;;;23.73;13.02;;;;;;;12.69;80.54;102237.00;5072686;28;20028;-51
2023/06/01 07:06:55;;;;;;;23.38;12.90;;;;;;;12.73;81.40;102235.31;5084660;28;20032;-53
2023/06/01 07:09:21;;;;;;;23.67;12.70;;;;;;;12.80;81.15;102233.03;5092930;28;20035;-51
2023/06/01 07:11:47;;;;;;;24.27;13.82;;;;;;;12.80;81.17;102233.84;5105136;28;20032;-53
2023/06/01 07:14:13;;;;;;;24.42;13.40;;;;;;;12.74;81.28;102242.53;5113175;28;20035;-52
2023/06/01 07:16:38;;;;;;;22.98;12.90;;;;;;;12.76;81.60;102229.16;5113244;28;20034;-51
2023/06/01 07:19:04;;;;;;;23.63;13.80;;;;;;;12.98;81.52;102227.91;5113018;28;20091;-49
2023/06/01 07:21:29;;;;;;;22.27;13.23;;;;;;;13.28;80.22;102221.28;5111751;28;20177;-52
2023/06/01 07:23:54;;;;;;;24.65;13.48;;;;;;;13.38;78.46;102223.16;5113173;28;20061;-52
2023/06/01 07:26:22;;;;;;;24.70;14.20;;;;;;;13.35;78.07;102227.38;5103604;28;20032;-53
2023/06/01 07:28:53;;;;;;;26.67;14.73;;;;;;;13.37;77.49;102232.63;5092455;28;20044;-49
2023/06/01 07:31:19;;;;;;;23.80;13.07;;;;;;;13.45;77.96;102228.44;5084284;28;20131;-52
2023/06/01 07:33:45;;;;;;;27.00;14.40;;;;;;;13.57;77.78;102223.28;5091082;28;20024;-49
2023/06/01 07:36:11;;;;;;;24.13;14.48;;;;;;;13.68;77.44;102224.84;5091526;28;20078;-53
2023/06/01 07:38:37;;;;;;;25.80;14.18;;;;;;;13.82;76.70;102241.66;5091223;28;20081;-51
2023/06/01 07:41:02;;;;;;;23.15;14.45;;;;;;;13.98;76.29;102235.97;5090725;28;20028;-50
2023/06/01 07:43:28;;;;;;;25.02;14.15;;;;;;;13.95;76.19;102230.97;5090952;28;20415;-50
2023/06/01 07:45:53;;;;;;;25.38;14.43;;;;;;;14.00;75.72;102237.31;5095504;28;20428;-51
2023/06/01 07:48:19;;;;;;;26.75;14.88;;;;;;;13.98;75.24;102234.00;5112540;28;20408;-49
2023/06/01 07:50:44;;;;;;;25.25;14.98;;;;;;;13.71;76.32;102232.63;5112215;28;20115;-52
2023/06/01 07:53:10;;;;;;;24.75;14.13;;;;;;;13.64;76.39;102226.56;5104303;28;20032;-52
2023/06/01 07:55:36;;;;;;;25.98;14.85;;;;;;;13.65;76.75;102222.66;5092378;28;20054;-51
2023/06/01 07:58:01;;;;;;;25.45;14.70;;;;;;;13.72;75.84;102234.28;5082984;28;20123;-51
2023/06/01 08:00:26;;;;;;;24.85;14.77;;;;;;;13.52;75.93;102229.72;5071550;28;20024;-51
2023/06/01 08:02:52;;;;;;;25.58;15.57;;;;;;;13.46;76.81;102232.88;5108648;28;20059;-48
2023/06/01 08:05:18;;;;;;;24.35;14.75;;;;;;;13.55;77.73;102234.72;5112194;28;20030;-50
2023/06/01 08:07:45;;;;;;;29.17;14.68;;;;;;;13.71;77.19;102232.63;5112060;28;20040;-51
2023/06/01 08:10:12;;;;;;;25.67;13.98;;;;;;;13.88;75.62;102226.59;5112133;28;20110;-51
2023/06/01 08:12:37;;;;;;;25.25;14.98;;;;;;;13.78;75.84;102231.44;5110218;28;20237;-48
2023/06/01 08:15:03;;;;;;;25.20;14.63;;;;;;;13.84;76.26;102230.25;5112183;28;20157;-51
2023/06/01 08:17:29;;;;;;;25.48;14.77;;;;;;;13.86;74.28;102222.44;5111202;28;20070;-48
2023/06/01 08:19:56;;;;;;;25.02;14.77;;;;;;;13.98;75.37;102222.06;5112315;28;20050;-48
2023/06/01 08:22:23;;;;;;;25.00;14.98;;;;;;;14.15;75.39;102225.19;5110481;28;20047;-48
2023/06/01 08:24:48;;;;;;;26.75;14.55;;;;;;;14.12;73.88;102219.38;5112154;28;20077;-49
2023/06/01 08:27:18;;;;;;;25.23;14.98;;;;;;;14.25;74.20;102221.44;5102070;28;20056;-49
2023/06/01 08:29:48;;;;;;;25.05;15.02;;;;;;;14.26;72.92;102213.91;5080813;28;20016;-51
2023/06/01 08:32:14;;;;;;;25.38;14.38;;;;;;;14.37;72.61;102214.59;5083109;28;20032;-51
2023/06/01 08:34:40;;;;;;;25.00;14.93;;;;;;;14.43;72.02;102219.81;5091687;28;20055;-48
2023/06/01 08:37:05;;;;;;;23.77;14.35;;;;;;;14.44;71.23;102213.13;5103596;28;20058;-51
2023/06/01 08:39:30;;;;;;;24.10;14.65;;;;;;;14.46;71.60;102213.63;5112034;28;20126;-49
2023/06/01 08:42:35;;;;;;;24.75;14.95;;;;;;;14.63;71.66;102212.31;5101058;28;20089;-48
2023/06/01 08:45:03;;;;;;;;;;;;;;;14.80;72.26;102209.84;5071402;28;20021;-48
2023/06/01 08:47:29;;;;;;;24.33;14.45;;;;;;;14.86;69.12;102218.97;5085403;28;20006;-47
2023/06/01 08:49:57;;;;;;;26.73;15.18;;;;;;;14.78;70.04;102208.50;5091029;28;20455;-51
2023/06/01 08:52:28;;;;;;;25.42;14.60;;;;;;;14.81;70.01;102211.50;5090884;28;20089;-50
2023/06/01 08:54:54;;;;;;;23.60;14.93;;;;;;;14.78;69.84;102202.94;5091037;28;20035;-49
2023/06/01 08:57:20;;;;;;;25.90;14.55;;;;;;;14.92;69.84;102206.59;5090727;28;20028;-46
2023/06/01 08:59:46;;;;;;;25.85;15.20;;;;;;;14.90;69.72;102208.84;5088069;28;20067;-50
2023/06/01 09:02:12;;;;;;;25.45;14.95;;;;;;;14.87;69.02;102201.13;5090395;28;20109;-49
2023/06/01 09:04:41;;;;;;;27.27;14.48;;;;;;;14.96;68.31;102190.09;5090175;28;20027;-50
2023/06/01 09:07:07;;;;;;;23.73;14.77;;;;;;;15.07;68.54;102186.03;5089367;28;20425;-50
2023/06/01 09:09:33;;;;;;;24.15;14.45;;;;;;;15.19;69.27;102182.75;5089306;28;20103;-50
2023/06/01 09:12:19;;;;;;;25.35;14.27;;;;;;;15.27;68.78;102195.97;5089226;28;20611;-51
2023/06/01 09:14:45;;;;;;;24.67;13.82;;;;;;;15.34;67.32;102190.00;5069044;28;20024;-50
2023/06/01 09:17:21;;;;;;;24.58;13.52;;;;;;;15.49;67.05;102188.91;5069208;28;20040;-50
2023/06/01 09:19:47;;;;;;;24.50;13.25;;;;;;;15.59;66.96;102182.31;5069718;28;20354;-51
2023/06/01 09:22:12;;;;;;;24.52;13.77;;;;;;;15.74;64.50;102182.03;5069417;28;20405;-52
2023/06/01 09:24:38;;;;;;;26.73;13.95;;;;;;;15.81;64.37;102178.00;5070445;28;20048;-52
2023/06/01 09:27:04;;;;;;;24.80;15.27;;;;;;;15.69;65.62;102175.72;5078544;28;20038;-48
2023/06/01 09:29:30;;;;;;;23.27;13.85;;;;;;;15.72;65.75;102172.31;5080169;28;20033;-51
2023/06/01 09:31:55;;;;;;;26.48;14.20;;;;;;;15.78;65.13;102167.44;5079243;28;20458;-51
2023/06/01 09:34:22;;;;;;;23.30;13.98;;;;;;;15.97;63.76;102176.56;5081550;28;20067;-50
2023/06/01 09:36:52;;;;;;;23.98;13.98;;;;;;;16.01;63.95;102157.25;5090953;28;20031;-49
2023/06/01 09:39:20;;;;;;;25.10;14.18;;;;;;;16.04;64.04;102163.03;5090643;28;20036;-49
2023/06/01 09:41:45;;;;;;;24.20;14.57;;;;;;;16.19;64.25;102167.47;5090731;28;20024;-49
2023/06/01 09:44:11;;;;;;;24.42;14.23;;;;;;;16.36;62.37;102172.38;5090972;28;20058;-51
2023/06/01 09:46:48;;;;;;;24.23;14.50;;;;;;;16.46;63.03;102167.72;5080500;28;20517;-50
2023/06/01 09:49:20;;;;;;;24.52;14.60;;;;;;;16.58;62.23;102164.41;5070593;28;20083;-50
2023/06/01 09:51:45;;;;;;;24.75;14.05;;;;;;;16.91;61.99;102152.97;5074356;28;20020;-50
2023/06/01 09:54:24;;;;;;;27.08;14.23;;;;;;;17.06;61.51;102161.00;5071898;28;20517;-52
2023/06/01 09:56:50;;;;;;;25.70;14.63;;;;;;;17.02;59.84;102156.34;5085747;28;20027;-50
2023/06/01 09:59:15;;;;;;;24.85;14.10;;;;;;;16.91;60.43;102161.34;5090012;28;20021;-48
2023/06/01 10:01:41;;;;;;;25.38;14.48;;;;;;;17.05;61.21;102145.34;5090185;28;20036;-50
2023/06/01 10:04:10;;;;;;;24.48;15.50;;;;;;;17.02;61.08;102159.16;5090200;28;20085;-49
2023/06/01 10:06:40;;;;;;;25.75;15.38;;;;;;;16.98;60.50;102150.59;5092745;28;20044;-50
2023/06/01 10:09:15;;;;;;;23.58;14.35;;;;;;;17.09;60.61;102157.56;5094006;28;20537;-52
2023/06/01 10:11:41;;;;;;;25.10;15.55;;;;;;;17.12;59.64;102156.09;5093894;28;20430;-49
2023/06/01 10:14:07;;;;;;;24.45;14.43;;;;;;;17.30;59.25;102146.66;5093554;28;20028;-51
2023/06/01 10:16:34;;;;;;;23.83;15.23;;;;;;;17.36;59.21;102144.56;5093546;28;20036;-51
2023/06/01 10:19:00;;;;;;;25.35;15.73;;;;;;;17.60;58.87;102144.19;5093424;28;20102;-53
2023/06/01 10:21:28;;;;;;;25.20;15.43;;;;;;;17.56;58.76;102147.94;5092733;28;20032;-52
2023/06/01 10:23:54;;;;;;;27.42;15.43;;;;;;;17.54;57.64;102139.03;5093896;28;20128;-50
2023/06/01 10:26:21;;;;;;;25.90;14.57;;;;;;;17.79;58.13;102143.09;5093512;28;20464;-50
2023/06/01 10:28:48;;;;;;;24.25;14.98;;;;;;;17.93;57.90;102146.63;5093537;28;20407;-50
2023/06/01 10:31:36;;;;;;;26.05;15.23;;;;;;;18.05;58.25;102140.41;5093615;28;20421;-51
2023/06/01 10:34:02;;;;;;;26.73;15.63;;;;;;;18.01;57.00;102141.38;5093507;28;20036;-50
2023/06/01 10:37:03;;;;;;;25.10;15.75;;;;;;;18.11;57.97;102138.28;5093549;28;20043;-51
2023/06/01 10:39:33;;;;;;;26.58;16.20;;;;;;;18.05;56.91;102143.22;5050398;28;20028;-48
2023/06/01 10:42:18;;;;;;;28.23;16.05;;;;;;;18.00;57.65;102142.53;5085891;28;20040;-51
2023/06/01 10:44:44;;;;;;;28.08;16.58;;;;;;;17.94;57.68;102139.03;5093003;28;20028;-52
2023/06/01 10:47:12;;;;;;;27.20;15.93;;;;;;;18.12;57.06;102127.88;5077637;28;20021;-52
2023/06/01 10:49:47;;;;;;;26.13;15.55;;;;;;;18.16;57.29;102135.31;5074026;28;20082;-47
2023/06/01 10:52:27;;;;;;;25.70;16.55;;;;;;;18.28;57.74;102128.25;5069387;28;20020;-47
2023/06/01 10:54:54;;;;;;;24.65;15.38;;;;;;;18.36;56.04;102127.44;5074175;28;20032;-49
2023/06/01 10:57:20;;;;;;;25.02;14.90;;;;;;;18.31;55.91;102133.22;5074101;28;20032;-48
2023/06/01 11:00:15;;;;;;;24.55;15.90;;;;;;;18.40;56.47;102137.66;5074246;28;20029;-51
2023/06/01 11:02:48;;;;;;;25.58;15.20;;;;;;;18.27;55.10;102135.00;5074306;28;20039;-52
2023/06/01 11:05:43;;;;;;;24.13;15.05;;;;;;;18.30;55.87;102128.75;5074205;28;20028;-49
2023/06/01 11:08:21;;;;;;;25.67;15.15;;;;;;;18.46;55.88;102126.28;5091674;28;20093;-52